Time;durP1;ratioP1;P1;durP2;ratioP2;P2;SDS_P1;SDS_P2;PMS_P1;PMS_P2;Temp;Humidity;BMP_temperature;BMP_pressure;BME280_temperature;BME280_humidity;BME280_pressure;Samples;Min_cycle;Max_cycle;Signal;HPM_P1;HPM_P2
2022/04/02 00:02:14;;;;;;;9.57;4.10;;;1.60;94.70;;;;;;10438509;28;20308;-87
2022/04/02 00:07:36;;;;;;;8.30;3.13;;;1.60;95.30;;;;;;10438317;28;20220;-84
2022/04/02 00:12:57;;;;;;;6.53;3.10;;;1.60;95.50;;;;;;10439174;28;20199;-83
2022/04/02 00:18:21;;;;;;;5.83;2.80;;;1.50;96.50;;;;;;10442272;28;20342;-78
2022/04/02 00:23:46;;;;;;;6.50;3.63;;;1.50;97.70;;;;;;10479976;28;20294;-88
2022/04/02 00:29:10;;;;;;;6.90;3.70;;;1.60;99.70;;;;;;10479115;28;20212;-78
2022/04/02 00:34:32;;;;;;;5.87;3.10;;;1.60;99.90;;;;;;10464410;28;20201;-78
2022/04/02 00:39:53;;;;;;;9.43;3.73;;;1.50;99.90;;;;;;10443323;28;20228;-87
2022/04/02 00:45:14;;;;;;;7.27;3.37;;;1.50;99.90;;;;;;10437491;28;20275;-86
2022/04/02 00:50:36;;;;;;;8.93;3.80;;;1.50;99.90;;;;;;10437679;28;20477;-80
2022/04/02 00:55:58;;;;;;;7.53;3.53;;;1.40;99.90;;;;;;10422247;28;20312;-77
2022/04/02 01:01:21;;;;;;;10.97;3.23;;;1.30;99.90;;;;;;10431636;28;20301;-78
2022/04/02 01:06:43;;;;;;;7.00;3.67;;;1.30;99.90;;;;;;10437410;28;20193;-87
2022/04/02 01:12:14;;;;;;;6.53;3.53;;;1.30;99.90;;;;;;10421885;28;20272;-78
2022/04/02 01:17:40;;;;;;;5.80;2.80;;;1.20;99.90;;;;;;10421699;28;20213;-88
2022/04/02 01:23:08;;;;;;;5.17;2.70;;;1.20;99.90;;;;;;10395120;28;20225;-82
2022/04/02 01:28:38;;;;;;;4.77;2.33;;;1.20;99.90;;;;;;10397394;28;20194;-83
2022/04/02 01:34:04;;;;;;;5.97;2.93;;;1.10;99.90;;;;;;10403225;28;20201;-87
2022/04/02 01:39:26;;;;;;;4.57;2.37;;;1.10;99.90;;;;;;10419375;28;20294;-78
2022/04/02 01:44:51;;;;;;;4.50;2.13;;;1.10;99.90;;;;;;10430378;28;20196;-77
2022/04/02 01:50:23;;;;;;;4.87;2.43;;;1.10;99.90;;;;;;10431667;28;20189;-84
2022/04/02 01:55:47;;;;;;;5.47;2.57;;;1.10;99.90;;;;;;10429310;28;20234;-88
2022/04/02 02:01:23;;;;;;;6.63;2.47;;;1.00;99.90;;;;;;10392955;28;20227;-88
2022/04/02 02:06:45;;;;;;;5.77;2.60;;;1.00;99.90;;;;;;10388289;28;20219;-86
2022/04/02 02:12:09;;;;;;;3.63;2.23;;;1.00;99.90;;;;;;10425206;28;20207;-79
2022/04/02 02:17:47;;;;;;;4.23;2.27;;;0.90;99.90;;;;;;10428572;28;20251;-87
2022/04/02 02:23:08;;;;;;;8.43;2.17;;;0.90;99.90;;;;;;10401515;28;20297;-83
2022/04/02 02:28:29;;;;;;;3.60;2.33;;;0.90;99.90;;;;;;10401575;28;20190;-79
2022/04/02 02:39:39;;;;;;;4.20;2.00;;;0.90;99.90;;;;;;10418357;28;20293;-88
2022/04/02 02:45:17;;;;;;;3.20;2.07;;;0.70;99.90;;;;;;10427649;28;20201;-78
2022/04/02 02:50:42;;;;;;;4.53;2.20;;;0.70;99.90;;;;;;10441532;28;20190;-79
2022/04/02 02:56:06;;;;;;;3.47;2.20;;;0.80;99.90;;;;;;10413734;28;20601;-84
2022/04/02 03:01:28;;;;;;;3.80;2.10;;;0.80;99.90;;;;;;10389912;28;20227;-80
2022/04/02 03:06:53;;;;;;;4.53;2.80;;;0.70;99.90;;;;;;10399947;28;20189;-77
2022/04/02 03:12:14;;;;;;;6.67;2.63;;;0.60;99.90;;;;;;10439975;28;20196;-81
2022/04/02 03:17:37;;;;;;;4.30;2.20;;;0.60;99.90;;;;;;10426390;28;20203;-89
2022/04/02 03:22:59;;;;;;;4.63;1.90;;;0.60;99.90;;;;;;10429375;28;20247;-78
2022/04/02 03:28:21;;;;;;;5.97;2.10;;;0.60;99.90;;;;;;10440051;28;20279;-81
2022/04/02 03:33:42;;;;;;;3.77;1.80;;;0.60;99.90;;;;;;10434085;28;20193;-87
2022/04/02 03:39:14;;;;;;;3.33;1.87;;;0.60;99.90;;;;;;10439777;28;20206;-85
2022/04/02 03:44:36;;;;;;;4.67;2.13;;;0.60;99.90;;;;;;10454591;28;20190;-77
2022/04/02 03:49:58;;;;;;;6.83;1.90;;;0.60;99.90;;;;;;10458296;28;20217;-77
2022/04/02 03:55:30;;;;;;;5.23;2.30;;;0.50;99.90;;;;;;10424594;28;20234;-77
2022/04/02 04:00:55;;;;;;;6.80;2.50;;;0.60;99.90;;;;;;10397702;28;20218;-88
2022/04/02 04:06:18;;;;;;;4.97;2.47;;;0.60;99.90;;;;;;10384513;28;20200;-80
2022/04/02 04:11:41;;;;;;;7.77;3.40;;;0.60;99.90;;;;;;10421654;28;20205;-88
2022/04/02 04:17:03;;;;;;;6.00;2.77;;;0.60;99.90;;;;;;10438922;28;20416;-84
2022/04/02 04:22:26;;;;;;;5.43;2.80;;;0.60;99.90;;;;;;10477066;28;20295;-82
2022/04/02 04:27:48;;;;;;;7.63;2.93;;;0.60;99.90;;;;;;10464714;28;20256;-77
2022/04/02 04:33:10;;;;;;;7.80;2.40;;;0.70;99.90;;;;;;10464641;28;20396;-88
2022/04/02 04:38:32;;;;;;;5.23;2.40;;;0.70;99.90;;;;;;10438999;28;20209;-85
2022/04/02 04:43:58;;;;;;;3.87;2.40;;;0.70;99.90;;;;;;10438143;28;20226;-85
2022/04/02 04:49:27;;;;;;;4.73;2.47;;;0.70;99.90;;;;;;10437260;28;20191;-77
2022/04/02 04:54:54;;;;;;;5.93;3.10;;;0.80;99.90;;;;;;10423906;28;20232;-77
2022/04/02 05:00:16;;;;;;;4.00;1.90;;;0.80;99.90;;;;;;10397693;28;20229;-85
2022/04/02 05:05:39;;;;;;;4.37;2.27;;;0.80;99.90;;;;;;10395598;28;20266;-79
2022/04/02 05:11:05;;;;;;;11.63;3.10;;;0.90;99.90;;;;;;10429955;28;20196;-78
2022/04/02 05:16:36;;;;;;;2.93;1.97;;;0.90;99.90;;;;;;10437623;28;20192;-77
2022/04/02 05:22:01;;;;;;;4.40;2.90;;;1.10;99.90;;;;;;10457430;28;20224;-89
2022/04/02 05:27:29;;;;;;;5.40;2.43;;;1.10;99.90;;;;;;10477573;28;20193;-88
2022/04/02 05:32:50;;;;;;;7.10;2.67;;;1.20;99.90;;;;;;10467007;28;20196;-89
2022/04/02 05:38:12;;;;;;;8.40;3.63;;;1.20;99.90;;;;;;10437562;28;20280;-78
2022/04/02 05:43:33;;;;;;;11.57;3.97;;;1.40;99.90;;;;;;10380544;28;20287;-77
2022/04/02 05:48:55;;;;;;;7.77;3.97;;;1.50;99.90;;;;;;10397833;28;20191;-88
2022/04/02 05:54:16;;;;;;;11.10;4.07;;;1.70;99.90;;;;;;10395592;28;20284;-78
2022/04/02 05:59:38;;;;;;;15.43;4.00;;;1.70;99.90;;;;;;10416513;28;20208;-88
2022/04/02 06:05:01;;;;;;;7.73;2.93;;;1.70;99.90;;;;;;10436786;28;20281;-77
2022/04/02 06:10:22;;;;;;;14.00;5.67;;;1.80;99.90;;;;;;10435507;28;20379;-89
2022/04/02 06:15:44;;;;;;;15.87;4.63;;;1.90;99.90;;;;;;10439064;28;20199;-78
2022/04/02 06:21:05;;;;;;;9.40;4.43;;;2.20;99.90;;;;;;10470385;28;20220;-88
2022/04/02 06:26:27;;;;;;;5.27;3.00;;;2.40;99.90;;;;;;10483570;28;20374;-80
2022/04/02 06:31:48;;;;;;;10.07;4.07;;;2.60;99.90;;;;;;10485137;28;20269;-88
2022/04/02 06:37:09;;;;;;;5.07;2.40;;;2.80;99.90;;;;;;10464404;28;20191;-77
2022/04/02 06:42:32;;;;;;;10.33;2.53;;;3.10;99.90;;;;;;10445378;28;20227;-81
2022/04/02 06:47:55;;;;;;;13.80;4.77;;;4.10;95.40;;;;;;10446115;28;20193;-81
2022/04/02 06:53:17;;;;;;;17.23;3.93;;;4.80;92.20;;;;;;10445091;28;20197;-88
2022/04/02 06:58:39;;;;;;;22.27;4.47;;;5.60;70.60;;;;;;10429171;28;20233;-81
2022/04/02 07:04:01;;;;;;;7.70;3.40;;;6.00;58.20;;;;;;10414465;28;20305;-89
2022/04/02 07:09:22;;;;;;;11.47;3.73;;;6.40;53.20;;;;;;10426729;28;20197;-86
2022/04/02 07:14:43;;;;;;;13.03;4.17;;;6.10;46.60;;;;;;10427442;28;20289;-81
2022/04/02 07:20:06;;;;;;;7.23;2.43;;;5.70;43.90;;;;;;10460981;28;20209;-78
2022/04/02 07:25:29;;;;;;;17.10;3.73;;;6.10;44.70;;;;;;10481307;28;20198;-77
2022/04/02 07:30:51;;;;;;;15.27;3.73;;;7.30;38.50;;;;;;10482483;28;20425;-90
2022/04/02 07:36:55;;;;;;;16.07;2.90;;;8.70;31.50;;;;;;10486129;28;20194;-78
2022/04/02 07:42:26;;;;;;;11.23;3.87;;;9.40;27.20;;;;;;10439573;28;20519;-78
2022/04/02 07:47:57;;;;;;;19.27;4.47;;;9.20;27.10;;;;;;10439729;28;20262;-86
2022/04/02 07:53:23;;;;;;;10.33;3.03;;;9.30;25.40;;;;;;10440052;28;20198;-79
2022/04/02 07:58:50;;;;;;;22.33;3.00;;;8.60;26.20;;;;;;10434608;28;20280;-78
2022/04/02 08:04:12;;;;;;;10.17;3.00;;;8.50;27.00;;;;;;10411690;28;20250;-78
2022/04/02 08:09:35;;;;;;;17.00;2.87;;;8.70;26.80;;;;;;10431758;28;20192;-80
2022/04/02 08:14:56;;;;;;;6.63;2.10;;;8.70;26.20;;;;;;10439242;28;20248;-88
2022/04/02 08:20:18;;;;;;;6.53;1.87;;;9.40;25.40;;;;;;10461471;28;20207;-80
2022/04/02 08:25:58;;;;;;;4.67;2.20;;;8.70;25.90;;;;;;10480048;28;20433;-80
2022/04/02 08:31:45;;;;;;;10.33;2.70;;;7.60;27.40;;;;;;10479182;28;20220;-88
2022/04/02 08:37:32;;;;;;;4.50;3.00;;;6.40;28.80;;;;;;10472376;28;20193;-88
2022/04/02 08:43:05;;;;;;;12.30;4.17;;;6.40;29.90;;;;;;10409155;28;20222;-78
2022/04/02 08:48:28;;;;;;;10.83;4.30;;;7.20;30.50;;;;;;10434662;28;20388;-77
2022/04/02 08:54:07;;;;;;;10.83;2.23;;;7.80;28.50;;;;;;10398592;28;20190;-78
2022/04/02 08:59:39;;;;;;;9.70;2.40;;;6.50;29.40;;;;;;10415949;28;20211;-89
2022/04/02 09:05:06;;;;;;;8.10;2.93;;;6.70;30.60;;;;;;10445964;28;20232;-81
2022/04/02 09:10:52;;;;;;;20.50;6.00;;;6.90;30.70;;;;;;10437695;28;20186;-77
2022/04/02 09:16:47;;;;;;;11.97;4.37;;;6.50;32.00;;;;;;10436090;28;20201;-79
2022/04/02 09:22:25;;;;;;;19.70;9.50;;;6.50;31.80;;;;;;10473170;28;20224;-89
2022/04/02 09:28:08;;;;;;;9.47;3.93;;;7.90;29.10;;;;;;10479341;28;20228;-78
2022/04/02 09:33:49;;;;;;;8.63;3.80;;;8.80;27.30;;;;;;10457792;28;20190;-79
2022/04/02 09:39:31;;;;;;;18.03;5.27;;;10.00;24.20;;;;;;10436986;28;20206;-81
2022/04/02 09:44:59;;;;;;;5.37;2.90;;;10.90;22.90;;;;;;10436622;28;20266;-89
2022/04/02 09:50:26;;;;;;;4.73;2.27;;;10.70;21.60;;;;;;10410674;28;20208;-80
2022/04/02 09:55:57;;;;;;;13.17;3.90;;;10.50;21.80;;;;;;10419355;28;20265;-79
2022/04/02 10:01:34;;;;;;;8.33;3.90;;;11.40;19.70;;;;;;10429032;28;20216;-90
2022/04/02 10:06:57;;;;;;;7.27;3.53;;;12.20;19.30;;;;;;10442892;28;20198;-77
2022/04/02 10:12:19;;;;;;;10.73;4.07;;;;;;;;;;10444288;28;20242;-79
2022/04/02 10:17:46;;;;;;;14.77;6.13;;;12.10;16.60;;;;;;10443053;28;20203;-89
2022/04/02 10:23:22;;;;;;;23.57;4.30;;;12.60;17.20;;;;;;10402525;28;20231;-78
2022/04/02 10:28:56;;;;;;;12.60;4.33;;;13.10;15.20;;;;;;10402370;28;20194;-78
2022/04/02 10:34:40;;;;;;;6.50;4.10;;;12.60;14.80;;;;;;10431491;28;20203;-87
2022/04/02 10:40:04;;;;;;;11.97;3.33;;;12.60;15.40;;;;;;10428264;28;20207;-77
2022/04/02 10:45:28;;;;;;;23.77;9.63;;;12.50;15.40;;;;;;10442634;28;20200;-78
2022/04/02 10:50:50;;;;;;;10.13;3.30;;;12.80;14.70;;;;;;10426899;28;20207;-81
2022/04/02 10:56:25;;;;;;;20.30;8.07;;;12.30;14.00;;;;;;10440389;28;20235;-78
2022/04/02 11:01:52;;;;;;;12.13;5.53;;;12.90;13.90;;;;;;10412405;28;20547;-81
2022/04/02 11:07:26;;;;;;;10.57;4.03;;;13.10;13.50;;;;;;10427771;28;20267;-79
2022/04/02 11:12:58;;;;;;;7.40;3.33;;;12.80;13.40;;;;;;10442432;28;20215;-78
2022/04/02 11:18:19;;;;;;;7.50;4.40;;;12.70;12.90;;;;;;10446317;28;20194;-78
2022/04/02 11:23:51;;;;;;;5.57;2.77;;;12.80;13.40;;;;;;10467227;28;20230;-79
2022/04/02 11:29:13;;;;;;;4.47;2.20;;;13.10;12.80;;;;;;10482280;28;20222;-87
2022/04/02 11:34:37;;;;;;;5.10;2.20;;;12.60;12.90;;;;;;10432646;28;20194;-84
2022/04/02 11:40:04;;;;;;;5.07;2.23;;;12.60;13.40;;;;;;10439521;28;20203;-80
2022/04/02 11:45:28;;;;;;;12.33;7.67;;;12.90;13.10;;;;;;10440674;28;20237;-79
2022/04/02 11:50:50;;;;;;;6.30;2.60;;;12.70;12.30;;;;;;10441196;28;20273;-79
2022/04/02 11:56:26;;;;;;;19.67;4.70;;;13.00;13.10;;;;;;10424997;28;20235;-78
2022/04/02 12:01:50;;;;;;;5.20;3.07;;;12.80;11.90;;;;;;10414666;28;20476;-82
2022/04/02 12:07:17;;;;;;;15.63;4.73;;;11.80;13.20;;;;;;10439471;28;20191;-78
2022/04/02 12:13:03;;;;;;;17.83;3.67;;;12.10;14.00;;;;;;10437917;28;20365;-79
2022/04/02 12:18:25;;;;;;;10.23;2.50;;;12.00;13.90;;;;;;10430571;28;20192;-85
2022/04/02 12:24:00;;;;;;;7.87;3.40;;;12.20;14.20;;;;;;10491218;28;20225;-78
2022/04/02 12:29:21;;;;;;;9.60;2.70;;;12.40;13.50;;;;;;10485081;28;20195;-81
2022/04/02 12:34:43;;;;;;;5.53;2.30;;;12.00;14.10;;;;;;10443799;28;20406;-78
2022/04/02 12:40:20;;;;;;;13.80;5.97;;;11.70;13.80;;;;;;10439235;28;20203;-80
2022/04/02 12:45:41;;;;;;;30.30;10.77;;;11.90;13.90;;;;;;10437913;28;20261;-81
2022/04/02 12:51:02;;;;;;;17.43;9.10;;;11.60;13.90;;;;;;10437828;28;20199;-86
2022/04/02 12:56:32;;;;;;;6.63;2.97;;;10.90;14.80;;;;;;10431494;28;20291;-88
2022/04/02 13:01:57;;;;;;;7.53;3.00;;;10.90;15.50;;;;;;10435943;28;20221;-88
2022/04/02 13:07:21;;;;;;;7.33;2.30;;;11.00;14.60;;;;;;10436948;28;20437;-84
2022/04/02 13:12:44;;;;;;;11.23;3.30;;;10.40;15.20;;;;;;10436985;28;20196;-84
2022/04/02 13:24:15;;;;;;;4.50;2.40;;;9.90;16.10;;;;;;10478860;28;20407;-88
2022/04/02 13:30:06;;;;;;;9.43;4.80;;;10.20;16.00;;;;;;10487085;28;20238;-84
2022/04/02 13:35:45;;;;;;;5.60;3.20;;;10.40;16.40;;;;;;10404209;28;20191;-84
2022/04/02 13:41:12;;;;;;;9.63;2.70;;;10.50;16.90;;;;;;10403613;28;20233;-87
2022/04/02 13:46:42;;;;;;;5.77;3.33;;;8.90;17.70;;;;;;10390627;28;20200;-80
2022/04/02 13:52:08;;;;;;;3.90;2.47;;;8.00;19.20;;;;;;10416639;28;20202;-77
2022/04/02 13:57:32;;;;;;;5.83;3.70;;;8.20;19.60;;;;;;10434832;28;20471;-78
2022/04/02 14:02:59;;;;;;;15.03;4.40;;;8.10;20.00;;;;;;10444788;28;20226;-87
2022/04/02 14:08:28;;;;;;;14.20;8.00;;;7.80;20.50;;;;;;10445477;28;20200;-88
2022/04/02 14:14:20;;;;;;;6.27;3.07;;;8.00;20.80;;;;;;10445131;28;20222;-84
2022/04/02 14:19:57;;;;;;;6.57;3.10;;;7.60;20.70;;;;;;10460858;28;20273;-84
2022/04/02 14:25:28;;;;;;;6.90;3.67;;;7.70;21.50;;;;;;10470489;28;20287;-84
2022/04/02 14:31:31;;;;;;;5.90;2.97;;;7.40;20.90;;;;;;10474483;28;20187;-84
2022/04/02 14:37:25;;;;;;;22.77;10.17;;;7.20;22.30;;;;;;10441020;28;20210;-80
2022/04/02 14:42:56;;;;;;;11.23;5.50;;;7.10;21.60;;;;;;10401433;28;20229;-88
2022/04/02 14:48:38;;;;;;;18.33;8.10;;;6.90;22.20;;;;;;10401456;28;20436;-87
2022/04/02 14:54:23;;;;;;;7.20;2.80;;;6.70;22.10;;;;;;10401985;28;20213;-81
2022/04/02 15:00:10;;;;;;;11.50;4.47;;;6.10;22.80;;;;;;10433854;28;20254;-87
2022/04/02 15:05:51;;;;;;;7.77;2.60;;;5.90;23.60;;;;;;10442229;28;20263;-86
2022/04/02 15:11:21;;;;;;;8.13;3.33;;;5.80;24.00;;;;;;10442445;28;20255;-87
2022/04/02 15:16:43;;;;;;;19.97;8.47;;;5.50;24.40;;;;;;10442371;28;20271;-80
2022/04/02 15:22:10;;;;;;;15.33;6.90;;;5.40;24.80;;;;;;10477741;28;20216;-88
2022/04/02 15:27:53;;;;;;;16.07;5.20;;;5.70;25.50;;;;;;10454204;28;20278;-84
2022/04/02 15:33:19;;;;;;;13.73;4.33;;;5.90;25.60;;;;;;10449905;28;20242;-87
2022/04/02 15:38:56;;;;;;;13.60;3.97;;;5.50;27.80;;;;;;10440611;28;20272;-85
2022/04/02 15:44:18;;;;;;;8.50;3.47;;;5.20;30.20;;;;;;10444667;28;20229;-87
2022/04/02 15:49:40;;;;;;;13.60;4.97;;;5.10;33.30;;;;;;10439878;28;20301;-89
2022/04/02 15:55:11;;;;;;;10.33;4.27;;;5.00;38.50;;;;;;10440949;28;20278;-87
2022/04/02 16:00:44;;;;;;;8.97;4.00;;;4.70;42.60;;;;;;10428304;28;20189;-88
2022/04/02 16:06:17;;;;;;;12.87;5.07;;;4.70;44.50;;;;;;10425071;28;20204;-86
2022/04/02 16:11:39;;;;;;;12.13;4.03;;;4.80;43.50;;;;;;10440117;28;20192;-81
2022/04/02 16:17:00;;;;;;;12.53;5.00;;;4.70;39.20;;;;;;10426036;28;20271;-77
2022/04/02 16:22:29;;;;;;;7.03;3.70;;;4.80;38.80;;;;;;10477413;28;20409;-77
2022/04/02 16:27:50;;;;;;;6.80;3.70;;;4.80;39.60;;;;;;10482865;28;20194;-77
2022/04/02 16:33:11;;;;;;;6.77;3.00;;;4.70;45.00;;;;;;10432620;28;20192;-88
2022/04/02 16:39:00;;;;;;;8.90;3.57;;;4.60;48.50;;;;;;10446848;28;20223;-78
2022/04/02 16:44:31;;;;;;;11.37;3.90;;;4.40;48.90;;;;;;10458703;28;20246;-83
2022/04/02 16:49:54;;;;;;;7.07;3.10;;;4.20;49.20;;;;;;10444280;28;20192;-79
2022/04/02 16:55:17;;;;;;;6.67;2.93;;;4.00;54.20;;;;;;10422531;28;20243;-77
2022/04/02 17:00:38;;;;;;;12.13;5.00;;;3.90;58.30;;;;;;10435765;28;20203;-79
2022/04/02 17:05:59;;;;;;;7.67;4.03;;;3.90;59.80;;;;;;10437131;28;20206;-85
2022/04/02 17:11:34;;;;;;;12.20;5.00;;;3.90;58.70;;;;;;10437320;28;20199;-88
2022/04/02 17:16:56;;;;;;;9.43;4.13;;;3.60;58.50;;;;;;10437456;28;20212;-80
2022/04/02 17:22:19;;;;;;;9.53;3.90;;;3.50;53.80;;;;;;10460384;28;20231;-81
2022/04/02 17:27:47;;;;;;;8.97;2.83;;;3.40;54.20;;;;;;10462967;28;20206;-77
2022/04/02 17:33:20;;;;;;;15.40;4.70;;;3.20;53.40;;;;;;10443423;28;20200;-82
2022/04/02 17:38:50;;;;;;;5.03;2.70;;;3.00;56.30;;;;;;10435969;28;20250;-77
2022/04/02 17:44:24;;;;;;;6.10;3.20;;;3.00;58.50;;;;;;10436637;28;20302;-77
2022/04/02 17:49:46;;;;;;;6.70;3.63;;;2.90;65.10;;;;;;10436160;28;20240;-80
2022/04/02 17:55:25;;;;;;;8.53;3.10;;;2.80;68.60;;;;;;10422384;28;20406;-88
2022/04/02 18:00:55;;;;;;;7.20;4.07;;;2.70;68.00;;;;;;10395563;28;20204;-83
2022/04/02 18:06:22;;;;;;;7.40;2.70;;;2.60;68.70;;;;;;10395222;28;20193;-90
2022/04/02 18:11:44;;;;;;;6.00;3.10;;;2.40;71.60;;;;;;10402057;28;20206;-88
2022/04/02 18:17:06;;;;;;;7.10;2.60;;;2.40;74.60;;;;;;10403486;28;20266;-87
2022/04/02 18:22:29;;;;;;;7.37;3.57;;;2.30;77.50;;;;;;10480962;28;20263;-80
2022/04/02 18:27:51;;;;;;;15.87;5.33;;;2.30;79.30;;;;;;10483969;28;20189;-80
2022/04/02 18:33:12;;;;;;;7.47;4.50;;;2.20;82.70;;;;;;10446624;28;20205;-82
2022/04/02 18:38:34;;;;;;;20.00;7.13;;;2.20;85.50;;;;;;10441931;28;20220;-78
2022/04/02 18:43:56;;;;;;;13.37;6.60;;;2.20;87.20;;;;;;10443070;28;20223;-87
2022/04/02 18:49:20;;;;;;;11.20;6.00;;;2.20;89.10;;;;;;10428015;28;20221;-82
2022/04/02 18:54:42;;;;;;;10.83;5.93;;;2.20;91.30;;;;;;10443155;28;20505;-89
2022/04/02 19:00:04;;;;;;;9.97;5.37;;;2.10;93.20;;;;;;10415837;28;20202;-85
2022/04/02 19:05:25;;;;;;;27.20;12.27;;;2.10;94.00;;;;;;10443906;28;20249;-90
2022/04/02 19:10:50;;;;;;;22.27;10.17;;;2.00;95.00;;;;;;10450019;28;20185;-77
2022/04/02 19:16:12;;;;;;;17.10;7.60;;;2.00;95.70;;;;;;10463902;28;20172;-81
2022/04/02 19:21:35;;;;;;;17.87;7.60;;;2.00;96.60;;;;;;10484378;28;20270;-79
2022/04/02 19:26:57;;;;;;;12.77;7.23;;;2.00;96.50;;;;;;10481936;28;20201;-86
2022/04/02 19:32:20;;;;;;;14.53;6.87;;;1.90;97.50;;;;;;10454028;28;20198;-89
2022/04/02 19:37:43;;;;;;;17.30;7.77;;;1.80;97.70;;;;;;10439946;28;20526;-78
2022/04/02 19:43:06;;;;;;;26.80;12.73;;;1.80;98.10;;;;;;10438617;28;20233;-78
2022/04/02 19:48:27;;;;;;;17.90;9.17;;;1.80;98.30;;;;;;10439835;28;20185;-89
2022/04/02 19:53:51;;;;;;;20.57;10.23;;;1.80;98.40;;;;;;10439599;28;20193;-77
2022/04/02 19:59:12;;;;;;;21.67;9.13;;;1.80;98.60;;;;;;10438832;28;20198;-89
2022/04/02 20:04:34;;;;;;;19.23;9.10;;;1.80;98.60;;;;;;10436290;28;20263;-90
2022/04/02 20:09:55;;;;;;;16.23;8.80;;;1.70;99.00;;;;;;10440097;28;20233;-87
2022/04/02 20:15:16;;;;;;;30.53;14.40;;;1.60;99.30;;;;;;10442962;28;20209;-79
2022/04/02 20:20:38;;;;;;;21.53;9.67;;;1.70;99.50;;;;;;10466117;28;20189;-77
2022/04/02 20:26:00;;;;;;;24.10;12.57;;;1.60;99.90;;;;;;10447555;28;20225;-86
2022/04/02 20:31:21;;;;;;;31.67;14.50;;;1.50;99.90;;;;;;10440039;28;20497;-79
2022/04/02 20:36:43;;;;;;;32.97;16.93;;;1.50;99.90;;;;;;10437582;28;20189;-77
2022/04/02 20:42:04;;;;;;;36.30;17.70;;;1.60;99.90;;;;;;10438738;28;20289;-80
2022/04/02 20:47:26;;;;;;;29.43;12.93;;;1.70;99.90;;;;;;10437329;28;20219;-80
2022/04/02 20:52:47;;;;;;;23.17;8.53;;;1.80;99.90;;;;;;10438874;28;20190;-87
2022/04/02 20:58:10;;;;;;;12.90;7.77;;;1.70;99.90;;;;;;10458022;28;20261;-79
2022/04/02 21:03:31;;;;;;;17.47;8.70;;;1.70;99.90;;;;;;10454455;28;20258;-89
2022/04/02 21:08:53;;;;;;;26.90;13.30;;;1.70;99.90;;;;;;10437958;28;20238;-81
2022/04/02 21:14:14;;;;;;;27.23;11.93;;;1.60;99.90;;;;;;10409318;28;20277;-82
2022/04/02 21:19:35;;;;;;;22.87;11.87;;;1.50;99.90;;;;;;10457120;28;20211;-79
2022/04/02 21:24:58;;;;;;;25.50;12.07;;;1.60;99.90;;;;;;10481333;28;20225;-79
2022/04/02 21:30:20;;;;;;;26.43;12.00;;;1.40;99.90;;;;;;10478643;28;20217;-86
2022/04/02 21:35:41;;;;;;;33.10;16.57;;;1.40;99.90;;;;;;10477827;28;20272;-79
2022/04/02 21:41:03;;;;;;;14.83;7.20;;;1.50;99.90;;;;;;10397573;28;20496;-84
2022/04/02 21:46:24;;;;;;;17.93;6.87;;;1.60;99.90;;;;;;10418650;28;20218;-89
2022/04/02 21:51:46;;;;;;;16.80;6.37;;;1.50;99.90;;;;;;10445153;28;20204;-89
2022/04/02 21:57:07;;;;;;;13.13;6.90;;;1.40;99.90;;;;;;10446461;28;20235;-89
2022/04/02 22:02:46;;;;;;;16.27;8.17;;;1.50;99.90;;;;;;10446675;28;20215;-89
2022/04/02 22:08:08;;;;;;;13.67;7.30;;;1.40;99.90;;;;;;10446576;28;20240;-90
2022/04/02 22:13:29;;;;;;;19.17;9.67;;;1.50;99.90;;;;;;10446310;28;20265;-89
2022/04/02 22:18:50;;;;;;;18.47;8.93;;;1.60;99.90;;;;;;10454016;28;20370;-89
2022/04/02 22:24:12;;;;;;;17.27;8.07;;;1.70;99.90;;;;;;10487904;28;20229;-90
2022/04/02 22:29:33;;;;;;;17.17;7.77;;;1.70;99.90;;;;;;10489189;28;20262;-87
2022/04/02 22:34:54;;;;;;;14.20;6.77;;;1.80;99.90;;;;;;10485746;28;20194;-86
2022/04/02 22:40:16;;;;;;;15.13;6.33;;;1.80;99.90;;;;;;10435236;28;20198;-78
2022/04/02 22:45:37;;;;;;;18.00;7.07;;;1.70;99.90;;;;;;10445422;28;20225;-86
2022/04/02 22:50:58;;;;;;;13.80;6.87;;;1.60;99.90;;;;;;10432238;28;20232;-79
2022/04/02 22:56:20;;;;;;;16.40;6.20;;;1.40;99.90;;;;;;10428193;28;20317;-88
2022/04/02 23:01:41;;;;;;;11.13;5.73;;;1.40;99.90;;;;;;10420475;28;20202;-90
2022/04/02 23:07:03;;;;;;;9.27;5.57;;;1.30;99.90;;;;;;10384172;28;20391;-83
2022/04/02 23:12:24;;;;;;;9.73;5.57;;;1.30;99.90;;;;;;10443107;28;20248;-90
2022/04/02 23:17:46;;;;;;;9.80;6.53;;;1.20;99.90;;;;;;10442419;28;20195;-89
2022/04/02 23:23:08;;;;;;;11.57;6.33;;;1.10;99.90;;;;;;10483254;28;20216;-89
2022/04/02 23:28:29;;;;;;;11.00;7.13;;;1.00;99.90;;;;;;10482535;28;20197;-84
2022/04/02 23:33:50;;;;;;;9.77;5.73;;;1.00;99.90;;;;;;10482094;28;20208;-87
2022/04/02 23:39:12;;;;;;;12.13;6.57;;;1.00;99.90;;;;;;10439499;28;20224;-79
2022/04/02 23:44:33;;;;;;;11.87;6.80;;;1.00;99.90;;;;;;10440880;28;20224;-88
2022/04/02 23:49:54;;;;;;;15.23;7.13;;;1.10;99.90;;;;;;10439634;28;20185;-89
2022/04/02 23:55:16;;;;;;;14.93;8.03;;;1.10;99.90;;;;;;10438961;28;20305;-79
